Time;durP1;ratioP1;P1;durP2;ratioP2;P2;SDS_P1;SDS_P2;PMS_P1;PMS_P2;Temp;Humidity;BMP_temperature;BMP_pressure;BME280_temperature;BME280_humidity;BME280_pressure;Samples;Min_cycle;Max_cycle;Signal;HPM_P1;HPM_P2
2022/02/02 00:00:48;;;;;;;28.75;4.85;;;;;;;7.80;90.72;101644.31;4992259;28;20073;-72
2022/02/02 00:03:16;;;;;;;33.75;4.88;;;;;;;7.78;90.91;101646.09;4992976;28;20109;-72
2022/02/02 00:08:24;;;;;;;27.80;4.90;;;;;;;7.73;91.20;101647.09;4993263;28;20073;-72
2022/02/02 00:21:22;;;;;;;27.58;4.53;;;;;;;7.74;91.20;101625.06;5060934;28;20044;-71
2022/02/02 00:23:52;;;;;;;30.20;5.00;;;;;;;7.74;91.17;101640.91;5074250;28;20109;-69
2022/02/02 00:26:24;;;;;;;30.88;4.55;;;;;;;7.72;91.23;101651.47;5074259;28;20028;-70
2022/02/02 00:28:54;;;;;;;30.63;5.15;;;;;;;7.65;91.34;101645.47;5074162;28;20031;-71
2022/02/02 00:31:32;;;;;;;27.75;3.90;;;;;;;7.64;91.85;101634.97;5073418;28;20056;-71
2022/02/02 00:34:02;;;;;;;28.85;3.95;;;;;;;7.64;91.77;101640.22;5074140;28;20082;-72
2022/02/02 00:36:36;;;;;;;29.33;4.97;;;;;;;7.62;91.87;101635.00;5073655;28;20032;-72
2022/02/02 00:39:03;;;;;;;29.75;5.15;;;;;;;7.60;91.42;101633.28;5073807;28;20044;-71
2022/02/02 00:41:28;;;;;;;30.08;5.03;;;;;;;7.59;91.73;101640.31;5073670;28;20020;-70
2022/02/02 00:43:59;;;;;;;32.17;5.60;;;;;;;7.57;91.70;101662.34;5073866;28;20082;-69
2022/02/02 00:46:27;;;;;;;32.42;4.68;;;;;;;7.54;91.63;101653.59;5069121;28;20025;-69
2022/02/02 00:48:59;;;;;;;26.88;5.13;;;;;;;7.50;91.73;101628.19;5035954;28;20040;-69
2022/02/02 00:51:26;;;;;;;;;;;;;;;7.50;91.75;101643.13;5054300;28;20025;-70
2022/02/02 00:53:51;;;;;;;31.05;5.32;;;;;;;7.48;91.84;101643.16;5073300;28;19943;-68
2022/02/02 00:56:17;;;;;;;28.90;4.40;;;;;;;7.46;91.91;101662.53;5073416;28;20432;-71
2022/02/02 00:58:42;;;;;;;29.98;4.75;;;;;;;7.41;92.02;101656.50;5073449;28;20086;-71
2022/02/02 01:01:07;;;;;;;29.75;4.82;;;;;;;7.40;92.07;101655.59;5073982;28;20016;-71
2022/02/02 01:03:33;;;;;;;37.45;5.43;;;;;;;7.41;92.26;101665.25;5072443;28;20039;-73
2022/02/02 01:06:01;;;;;;;32.92;4.80;;;;;;;7.49;91.93;101659.84;5073371;28;20104;-69
2022/02/02 01:08:51;;;;;;;26.40;4.68;;;;;;;7.48;92.04;101672.16;5073187;28;20492;-68
2022/02/02 01:19:33;;;;;;;28.15;5.38;;;;;;;7.45;92.20;101690.66;5072499;28;20071;-69
2022/02/02 01:29:53;;;;;;;27.88;4.18;;;;;;;7.36;92.66;101662.69;5072902;28;20082;-71
2022/02/02 01:32:19;;;;;;;34.08;5.43;;;;;;;7.32;92.97;101666.28;5073109;28;20429;-71
2022/02/02 01:34:44;;;;;;;26.67;4.97;;;;;;;7.28;93.33;101666.38;5072210;28;20021;-69
2022/02/02 01:37:10;;;;;;;34.90;5.28;;;;;;;7.22;93.48;101668.25;5072641;28;20376;-68
2022/02/02 01:39:36;;;;;;;34.22;5.32;;;;;;;7.24;94.12;101659.41;5072539;28;20056;-69
2022/02/02 01:42:04;;;;;;;40.70;5.60;;;;;;;7.23;94.10;101663.81;5073041;28;20111;-72
2022/02/02 01:44:42;;;;;;;30.65;5.13;;;;;;;7.21;94.11;101684.94;5072476;28;20070;-72
2022/02/02 01:47:09;;;;;;;31.00;4.47;;;;;;;7.18;94.28;101692.88;5072856;28;20020;-70
2022/02/02 01:54:59;;;;;;;28.23;5.38;;;;;;;7.25;94.74;101705.94;5057419;28;20052;-72
2022/02/02 01:59:52;;;;;;;32.78;5.40;;;;;;;7.22;95.22;101713.03;5072512;28;20032;-71
2022/02/02 02:02:18;;;;;;;32.83;4.85;;;;;;;7.26;95.31;101723.50;5072083;28;20388;-69
2022/02/02 02:04:43;;;;;;;36.38;5.03;;;;;;;7.27;95.44;101730.50;5072039;28;20020;-69
2022/02/02 02:07:09;;;;;;;27.58;4.47;;;;;;;7.25;95.55;101716.47;5072254;28;20032;-71
2022/02/02 02:09:34;;;;;;;26.67;4.35;;;;;;;7.24;95.73;101712.09;5072547;28;20115;-70
2022/02/02 02:12:04;;;;;;;34.15;5.47;;;;;;;7.27;95.68;101741.91;5072107;28;20032;-72
2022/02/02 02:17:11;;;;;;;33.78;4.65;;;;;;;7.37;95.68;101724.19;5072371;28;20040;-70
2022/02/02 02:19:40;;;;;;;28.60;4.43;;;;;;;7.39;95.55;101717.09;5072236;28;20031;-71
2022/02/02 02:22:10;;;;;;;36.53;5.13;;;;;;;7.41;95.48;101719.72;5071960;28;20497;-70
2022/02/02 02:24:38;;;;;;;28.67;5.20;;;;;;;7.46;95.12;101717.88;5072392;28;20102;-72
2022/02/02 02:27:04;;;;;;;33.47;4.88;;;;;;;7.46;95.15;101707.34;5072019;28;20030;-70
2022/02/02 02:32:36;;;;;;;31.13;5.32;;;;;;;7.49;94.74;101705.53;5072550;28;20385;-72
2022/02/02 02:56:02;;;;;;;28.08;5.50;;;;;;;7.59;94.22;101693.03;5037053;28;20087;-71
2022/02/02 03:30:53;;;;;;;28.98;4.30;;;;;;;7.69;93.45;101717.47;4994211;28;20461;-70
2022/02/02 03:55:29;;;;;;;32.33;4.75;;;;;;;7.68;93.93;101724.47;4954733;29;20045;-70
2022/02/02 03:58:11;;;;;;;32.17;4.80;;;;;;;7.65;94.16;101714.00;4960397;28;20035;-72
2022/02/02 04:08:09;;;;;;;30.88;4.43;;;;;;;7.57;94.68;101722.94;5034511;28;20044;-72
2022/02/02 04:10:35;;;;;;;41.38;6.20;;;;;;;7.56;95.18;101719.47;5034328;28;20037;-70
2022/02/02 04:13:19;;;;;;;31.88;4.43;;;;;;;7.55;95.02;101730.91;5034312;28;20029;-72
2022/02/02 04:16:59;;;;;;;29.58;4.60;;;;;;;7.55;95.39;101728.25;5034753;28;20083;-72
2022/02/02 05:04:34;;;;;;;33.03;4.93;;;;;;;7.52;96.00;101767.88;4991686;28;20115;-72
2022/02/02 05:07:05;;;;;;;30.55;4.97;;;;;;;7.49;95.92;101776.69;4992111;28;20086;-72
2022/02/02 05:10:01;;;;;;;33.22;4.63;;;;;;;7.48;96.38;101766.16;4992152;28;20045;-71
2022/02/02 05:13:12;;;;;;;37.90;5.13;;;;;;;7.46;96.73;101776.72;4991261;28;20041;-70
2022/02/02 05:18:17;;;;;;;30.02;5.10;;;;;;;7.45;96.80;101774.97;4991849;28;20096;-70
2022/02/02 05:21:10;;;;;;;31.30;4.68;;;;;;;7.41;97.45;101775.94;4991691;28;20038;-71
2022/02/02 05:52:35;;;;;;;29.88;5.35;;;;;;;7.29;98.01;101808.63;4971857;28;20134;-70
2022/02/02 05:55:01;;;;;;;35.92;5.55;;;;;;;7.29;97.91;101799.84;4967578;28;20174;-69
2022/02/02 05:57:27;;;;;;;33.95;5.38;;;;;;;7.29;98.22;101807.75;4952240;29;20031;-69
2022/02/02 05:59:57;;;;;;;30.05;5.07;;;;;;;7.31;98.25;101804.19;4952152;28;20035;-71
2022/02/02 06:02:30;;;;;;;35.60;5.43;;;;;;;7.37;98.06;101808.50;4966086;28;20031;-69
2022/02/02 06:05:00;;;;;;;26.20;4.03;;;;;;;7.35;97.97;101816.44;4970088;28;20082;-70
2022/02/02 06:07:26;;;;;;;28.48;4.05;;;;;;;7.35;98.08;101816.44;4969978;28;20050;-66
2022/02/02 06:09:51;;;;;;;30.65;4.40;;;;;;;7.34;98.00;101814.69;4971428;28;20043;-70
2022/02/02 06:12:20;;;;;;;33.00;5.18;;;;;;;7.33;98.05;101814.72;4969932;28;20073;-73
2022/02/02 06:14:45;;;;;;;32.47;4.95;;;;;;;7.32;98.37;101819.09;5052035;28;20044;-68
2022/02/02 06:17:11;;;;;;;30.85;6.03;;;;;;;7.31;98.36;101827.91;5071441;28;20023;-70
2022/02/02 06:19:37;;;;;;;29.08;5.55;;;;;;;7.30;98.46;101839.34;5074506;28;20062;-72
2022/02/02 06:22:25;;;;;;;38.85;5.90;;;;;;;7.32;98.40;101818.25;5074598;28;20025;-69
2022/02/02 06:25:04;;;;;;;25.20;5.38;;;;;;;7.31;98.13;101842.84;5064600;28;20032;-70
2022/02/02 06:27:34;;;;;;;29.85;5.60;;;;;;;7.28;98.34;101835.88;5067047;28;20037;-70
2022/02/02 06:30:08;;;;;;;29.88;5.28;;;;;;;7.28;98.56;101845.53;5071581;28;20512;-68
2022/02/02 06:32:48;;;;;;;32.63;5.30;;;;;;;7.24;98.08;101838.56;5072112;28;20031;-68
2022/02/02 06:35:15;;;;;;;25.95;3.72;;;;;;;7.13;98.84;101834.31;5072083;28;20051;-67
2022/02/02 06:37:42;;;;;;;33.05;4.03;;;;;;;7.07;99.05;101842.31;5068841;28;20016;-70
2022/02/02 06:40:09;;;;;;;22.02;3.85;;;;;;;7.02;99.50;101860.81;5071692;28;20063;-72
2022/02/02 06:42:36;;;;;;;28.48;4.47;;;;;;;7.01;99.95;101855.59;5071488;28;20062;-69
2022/02/02 06:45:03;;;;;;;30.80;5.57;;;;;;;6.97;100.00;101867.91;5071588;28;20027;-73
2022/02/02 06:47:29;;;;;;;31.95;4.22;;;;;;;6.98;100.00;101866.13;5071878;28;20035;-72
2022/02/02 06:50:05;;;;;;;28.67;4.88;;;;;;;6.98;100.00;101867.03;5068284;28;20024;-68
2022/02/02 06:53:02;;;;;;;22.30;4.03;;;;;;;7.02;100.00;101863.44;5070844;28;20028;-68
2022/02/02 06:55:38;;;;;;;32.00;4.78;;;;;;;6.98;100.00;101853.84;5065136;28;20026;-69
2022/02/02 06:58:27;;;;;;;35.60;6.35;;;;;;;7.00;100.00;101853.84;5054073;28;20425;-68
2022/02/02 07:01:16;;;;;;;35.58;6.28;;;;;;;7.07;100.00;101867.78;5071367;28;20480;-71
2022/02/02 07:06:38;;;;;;;27.67;4.95;;;;;;;7.12;100.00;101881.75;5073142;28;20093;-68
2022/02/02 07:11:52;;;;;;;34.40;4.95;;;;;;;7.16;100.00;101897.50;5056889;28;20370;-68
2022/02/02 07:17:39;;;;;;;24.30;4.50;;;;;;;7.26;100.00;101884.19;4968042;28;20043;-68
2022/02/02 07:28:21;;;;;;;20.50;3.33;;;;;;;7.38;99.41;101907.75;4927606;29;20062;-65
2022/02/02 07:31:00;;;;;;;27.70;4.25;;;;;;;7.44;99.11;101918.19;4916264;29;20068;-68
2022/02/02 07:33:34;;;;;;;21.40;3.20;;;;;;;7.45;98.71;101914.66;4932422;29;20039;-67
2022/02/02 07:36:12;;;;;;;27.50;3.75;;;;;;;7.41;98.92;101923.50;4917786;29;20039;-66
2022/02/02 07:38:46;;;;;;;38.00;7.40;;;;;;;7.41;98.77;101930.56;4916466;29;20174;-70
2022/02/02 07:41:21;;;;;;;30.25;5.10;;;;;;;7.35;99.07;101924.47;4916232;29;20047;-66
2022/02/02 07:43:48;;;;;;;22.00;4.07;;;;;;;7.36;99.46;101914.78;4914871;29;20056;-65
2022/02/02 07:46:14;;;;;;;24.52;4.13;;;;;;;7.39;99.51;101922.66;4905315;29;20181;-68
2022/02/02 07:48:41;;;;;;;16.58;3.13;;;;;;;7.47;99.55;101928.69;4916567;29;20408;-64
2022/02/02 07:51:09;;;;;;;18.02;3.22;;;;;;;7.48;99.75;101933.06;4916724;29;20130;-67
2022/02/02 07:53:43;;;;;;;22.23;3.58;;;;;;;7.54;99.76;101940.00;4978837;28;20125;-67
2022/02/02 07:56:14;;;;;;;15.55;4.55;;;;;;;7.56;99.70;101946.16;4992423;28;20034;-70
2022/02/02 07:58:42;;;;;;;20.42;4.25;;;;;;;7.60;99.85;101954.88;4993477;28;20396;-66
2022/02/02 08:01:08;;;;;;;29.55;7.68;;;;;;;7.60;99.85;101952.25;4992659;28;20041;-68
2022/02/02 08:03:39;;;;;;;24.23;4.68;;;;;;;7.66;99.99;101936.31;5018722;28;20045;-67
2022/02/02 08:06:07;;;;;;;18.23;3.53;;;;;;;7.76;100.00;101950.25;5054876;28;20102;-68
2022/02/02 08:08:35;;;;;;;16.90;3.55;;;;;;;7.79;100.00;101958.13;5054838;28;20054;-66
2022/02/02 08:11:05;;;;;;;19.38;3.40;;;;;;;7.80;100.00;101965.13;5055661;28;20175;-66
2022/02/02 08:13:45;;;;;;;17.30;3.22;;;;;;;7.82;100.00;101961.56;5074998;28;20024;-69
2022/02/02 08:16:16;;;;;;;16.95;3.72;;;;;;;7.87;100.00;101954.44;5074168;28;20040;-66
2022/02/02 08:18:45;;;;;;;19.00;4.10;;;;;;;7.89;100.00;101962.38;5056961;28;20021;-68
2022/02/02 08:21:11;;;;;;;26.95;4.65;;;;;;;7.87;100.00;101951.81;5074537;28;20036;-66
2022/02/02 08:23:36;;;;;;;19.80;3.80;;;;;;;7.86;100.00;101970.31;5056437;28;20464;-67
2022/02/02 08:26:09;;;;;;;22.05;6.32;;;;;;;7.82;100.00;101974.75;5074214;28;20048;-67
2022/02/02 08:28:36;;;;;;;26.08;4.38;;;;;;;7.84;100.00;101975.59;5072446;28;20103;-65
2022/02/02 08:31:02;;;;;;;25.90;6.88;;;;;;;7.86;100.00;101967.66;5074222;28;20020;-67
2022/02/02 08:33:33;;;;;;;25.25;8.90;;;;;;;7.87;100.00;101978.19;5073330;28;20032;-66
2022/02/02 08:35:58;;;;;;;19.48;4.03;;;;;;;7.86;100.00;101968.56;5070942;28;20028;-64
2022/02/02 08:40:58;;;;;;;25.98;4.13;;;;;;;7.91;100.00;101971.09;5073570;28;20123;-66
2022/02/02 08:43:32;;;;;;;20.42;4.20;;;;;;;7.92;100.00;101972.00;5066484;28;20035;-67
2022/02/02 08:46:04;;;;;;;17.42;3.20;;;;;;;7.97;100.00;101980.69;5077557;28;20060;-67
2022/02/02 08:48:30;;;;;;;14.68;3.58;;;;;;;8.05;100.00;101978.81;5070641;28;20432;-66
2022/02/02 08:51:00;;;;;;;18.08;4.05;;;;;;;8.09;100.00;101984.91;5073076;28;20107;-67
2022/02/02 08:56:03;;;;;;;20.27;3.97;;;;;;;8.17;100.00;101977.72;5072674;28;20230;-67
2022/02/02 08:58:44;;;;;;;20.10;3.47;;;;;;;8.25;100.00;101988.16;5067927;28;20074;-69
2022/02/02 09:01:20;;;;;;;25.67;8.20;;;;;;;8.27;100.00;101997.78;5042495;28;20496;-68
2022/02/02 09:06:29;;;;;;;16.40;4.57;;;;;;;8.37;100.00;102003.78;5074084;28;20036;-67
2022/02/02 09:09:08;;;;;;;19.70;3.58;;;;;;;8.43;99.62;102008.09;5068982;28;20033;-69
2022/02/02 09:25:38;;;;;;;18.48;3.67;;;;;;;8.63;98.83;102019.22;5011049;28;20040;-69
2022/02/02 09:33:53;;;;;;;13.10;3.30;;;;;;;8.69;99.15;102024.38;5008887;28;20091;-69
2022/02/02 09:36:23;;;;;;;16.45;3.65;;;;;;;8.72;99.00;102023.47;5011016;28;20030;-66
2022/02/02 09:38:52;;;;;;;20.85;2.90;;;;;;;8.81;98.58;102020.66;4997545;28;20093;-64
2022/02/02 09:41:39;;;;;;;13.75;2.83;;;;;;;8.82;98.77;102026.78;4996419;28;20102;-65
2022/02/02 09:44:08;;;;;;;17.60;3.55;;;;;;;8.83;98.20;102032.03;5010838;28;20045;-66
2022/02/02 09:46:46;;;;;;;13.77;2.90;;;;;;;8.89;98.00;102035.47;5006836;28;20058;-66
2022/02/02 09:50:00;;;;;;;11.25;3.35;;;;;;;8.89;98.17;102030.19;5009776;28;20074;-70
2022/02/02 09:52:05;;;;;;;16.55;3.80;;;;;;;8.99;98.12;102026.47;4991534;28;20410;-68
2022/02/02 09:55:03;;;;;;;14.25;3.28;;;;;;;8.94;97.35;102033.63;5010094;28;20068;-64
2022/02/02 09:57:48;;;;;;;22.33;4.32;;;;;;;9.10;96.87;102043.00;5055154;28;20046;-66
2022/02/02 10:05:35;;;;;;;12.40;2.83;;;;;;;9.25;96.34;102062.97;5071985;28;20051;-67
2022/02/02 10:10:52;;;;;;;16.52;3.22;;;;;;;9.08;96.07;102068.59;5071443;28;20071;-67
2022/02/02 10:13:35;;;;;;;11.07;2.97;;;;;;;9.09;96.42;102082.66;5072086;28;20081;-68
2022/02/02 10:16:00;;;;;;;10.45;3.20;;;;;;;9.15;96.49;102079.91;5072629;28;20025;-66
2022/02/02 10:18:32;;;;;;;16.17;3.00;;;;;;;9.12;96.28;102082.63;5072097;28;20070;-65
2022/02/02 10:20:58;;;;;;;;;;;;;;;9.17;96.88;102092.19;5072026;28;20072;-65
2022/02/02 10:23:29;;;;;;;17.50;2.88;;;;;;;9.19;96.19;102105.38;5071231;28;19958;-67
2022/02/02 10:25:58;;;;;;;8.15;3.20;;;;;;;9.17;95.89;102102.78;5071526;28;20043;-66
2022/02/02 10:28:32;;;;;;;13.13;3.13;;;;;;;9.16;96.41;102103.66;5072486;28;20028;-66
2022/02/02 10:31:03;;;;;;;14.98;3.42;;;;;;;9.19;96.25;102105.38;5069590;28;20683;-71
2022/02/02 10:33:30;;;;;;;17.47;3.63;;;;;;;9.21;96.16;102095.66;5068793;28;20476;-67
2022/02/02 10:36:08;;;;;;;13.27;3.47;;;;;;;9.13;95.86;102116.06;5073461;28;20452;-70
2022/02/02 10:38:50;;;;;;;15.40;3.20;;;;;;;9.25;95.66;102113.19;5075965;28;20045;-73
2022/02/02 10:41:31;;;;;;;16.77;3.90;;;;;;;9.35;95.48;102119.19;5057684;28;20036;-71
2022/02/02 10:44:02;;;;;;;11.25;3.05;;;;;;;9.48;95.24;102111.88;5075781;28;20060;-69
2022/02/02 10:46:39;;;;;;;10.55;2.90;;;;;;;9.67;94.49;102122.97;5075723;28;20032;-69
2022/02/02 10:49:20;;;;;;;16.77;3.33;;;;;;;9.75;93.94;102102.50;5076107;28;20573;-69
2022/02/02 10:51:54;;;;;;;15.95;3.70;;;;;;;9.91;93.59;102111.00;5075416;28;20028;-69
2022/02/02 10:57:02;;;;;;;9.75;3.22;;;;;;;10.00;91.44;102112.59;5076041;28;20044;-70
2022/02/02 11:07:15;;;;;;;17.52;3.08;;;;;;;9.75;93.13;102121.03;5075604;28;20047;-68
2022/02/02 11:09:42;;;;;;;12.00;3.00;;;;;;;9.65;93.10;102130.94;5057766;28;20025;-73
2022/02/02 11:12:09;;;;;;;15.20;3.55;;;;;;;9.62;93.29;102123.06;5075465;28;20024;-73
2022/02/02 11:14:53;;;;;;;14.77;3.42;;;;;;;9.65;93.58;102127.41;5074935;28;20027;-69
2022/02/02 11:17:49;;;;;;;12.27;3.05;;;;;;;9.83;93.17;102119.09;5075278;28;20025;-68
2022/02/02 11:20:16;;;;;;;16.83;5.40;;;;;;;9.87;93.08;102122.53;5075881;28;20796;-70
2022/02/02 11:22:50;;;;;;;15.63;4.07;;;;;;;10.02;92.65;102121.34;5075631;28;20050;-70
2022/02/02 11:25:17;;;;;;;10.52;3.72;;;;;;;10.25;91.27;102112.03;5074253;28;20036;-68
2022/02/02 11:27:49;;;;;;;13.02;3.42;;;;;;;10.51;89.90;102114.06;5074630;28;20060;-69
2022/02/02 11:30:23;;;;;;;14.90;3.83;;;;;;;10.43;90.02;102113.41;5074998;28;20115;-71
2022/02/02 11:32:55;;;;;;;12.48;2.72;;;;;;;10.49;90.35;102108.81;5075283;28;20473;-74
2022/02/02 11:36:02;;;;;;;13.38;3.78;;;;;;;10.40;89.79;102113.47;5056866;28;20033;-74
2022/02/02 11:38:27;;;;;;;12.30;3.38;;;;;;;10.24;90.42;102120.84;5073825;28;20036;-73
2022/02/02 11:41:13;;;;;;;20.73;4.90;;;;;;;10.12;90.56;102128.16;5074760;28;20045;-73
2022/02/02 11:43:49;;;;;;;17.80;4.50;;;;;;;10.26;90.83;102127.00;5074578;28;20396;-69
2022/02/02 11:47:19;;;;;;;15.25;3.50;;;;;;;10.34;90.34;102119.75;5074576;28;20109;-71
2022/02/02 11:49:50;;;;;;;13.20;3.60;;;;;;;10.32;90.85;102118.94;5075215;28;20047;-70
2022/02/02 11:52:32;;;;;;;12.43;3.70;;;;;;;10.12;91.00;102114.94;5074695;28;20028;-69
2022/02/02 11:54:58;;;;;;;20.50;4.45;;;;;;;10.06;90.68;102116.84;5074576;28;20023;-71
2022/02/02 11:57:26;;;;;;;16.05;3.63;;;;;;;10.11;91.53;102113.19;5074822;28;20107;-69
2022/02/02 11:59:59;;;;;;;8.93;3.20;;;;;;;10.35;91.57;102116.19;5074125;28;20564;-71
2022/02/02 12:02:41;;;;;;;15.02;3.83;;;;;;;10.62;90.14;102116.47;5074635;28;20032;-71
2022/02/02 12:10:41;;;;;;;12.00;3.90;;;;;;;10.59;87.91;102103.31;5074253;28;20101;-71
2022/02/02 12:47:33;;;;;;;14.55;4.38;;;;;;;11.67;79.90;102081.84;5074066;28;20047;-71
2022/02/02 13:00:11;;;;;;;12.25;2.67;;;;;;;10.40;87.13;102089.66;5073675;28;20040;-72
2022/02/02 13:02:40;;;;;;;21.23;3.85;;;;;;;10.32;87.53;102084.50;5073165;28;20071;-71
2022/02/02 13:05:07;;;;;;;11.98;2.97;;;;;;;10.26;87.22;102093.44;5072997;28;20028;-71
2022/02/02 13:07:34;;;;;;;16.10;2.95;;;;;;;10.14;87.36;102093.72;5073656;28;20047;-72
2022/02/02 13:10:04;;;;;;;10.65;2.65;;;;;;;10.09;88.42;102087.66;5073257;28;20058;-72
2022/02/02 13:12:36;;;;;;;13.15;3.25;;;;;;;10.08;88.36;102089.44;5072969;28;20025;-71
2022/02/02 13:17:58;;;;;;;11.60;3.17;;;;;;;10.19;88.55;102088.34;5073192;28;20032;-71
2022/02/02 13:21:14;;;;;;;10.80;3.45;;;;;;;10.26;88.37;102085.50;5054234;28;20444;-71
2022/02/02 13:23:29;;;;;;;13.43;3.10;;;;;;;10.35;88.57;102092.38;5063188;28;20044;-70
2022/02/02 13:26:01;;;;;;;15.20;3.45;;;;;;;10.46;87.51;102094.78;5071393;28;20032;-71
2022/02/02 13:29:09;;;;;;;14.65;2.65;;;;;;;10.63;86.76;102092.59;5072882;28;20107;-70
2022/02/02 13:45:40;;;;;;;15.52;4.15;;;;;;;10.73;85.96;102090.59;5008078;28;20041;-64
2022/02/02 13:56:57;;;;;;;13.10;3.13;;;;;;;12.03;79.96;102099.38;5009116;28;20037;-67
2022/02/02 14:07:19;;;;;;;14.85;2.58;;;;;;;11.46;81.22;102112.53;5040351;28;20051;-67
2022/02/02 14:31:16;;;;;;;13.18;2.70;;;;;;;10.36;87.36;102130.31;5071745;28;20042;-67
2022/02/02 14:33:45;;;;;;;11.82;2.40;;;;;;;10.27;87.91;102128.75;5071885;28;20024;-68
2022/02/02 14:36:13;;;;;;;11.60;3.00;;;;;;;10.17;88.33;102133.38;5068034;28;20039;-66
2022/02/02 14:38:50;;;;;;;7.85;2.60;;;;;;;10.01;88.94;102130.19;5061776;28;20103;-67
2022/02/02 14:41:39;;;;;;;11.00;2.65;;;;;;;9.99;89.60;102137.28;5071759;28;20048;-67
2022/02/02 14:44:17;;;;;;;11.45;3.10;;;;;;;9.89;89.87;102141.03;5070739;28;20087;-67
2022/02/02 14:47:08;;;;;;;6.93;2.22;;;;;;;9.80;90.48;102142.09;5053770;28;20472;-67
2022/02/02 14:49:57;;;;;;;9.70;2.65;;;;;;;9.77;91.02;102148.34;5070688;28;20036;-72
2022/02/02 15:23:44;;;;;;;14.48;2.92;;;;;;;9.49;94.90;102114.50;4980468;28;20041;-69
2022/02/02 15:27:52;;;;;;;9.48;2.90;;;;;;;9.64;93.72;102123.91;4973298;28;20074;-68
2022/02/02 15:32:48;;;;;;;13.57;2.55;;;;;;;9.65;92.17;102130.06;4999358;28;20035;-73
2022/02/02 15:35:14;;;;;;;13.23;2.58;;;;;;;9.59;91.95;102128.41;5005797;28;20134;-71
2022/02/02 15:38:27;;;;;;;15.50;2.17;;;;;;;9.45;92.49;102131.34;4989211;28;20109;-73
2022/02/02 15:40:34;;;;;;;11.25;2.30;;;;;;;9.34;92.71;102122.72;4975652;28;20050;-69
2022/02/02 15:43:25;;;;;;;12.18;2.50;;;;;;;9.25;93.75;102123.75;5046885;28;20072;-66
2022/02/02 15:59:24;;;;;;;13.60;2.90;;;;;;;8.92;95.49;102122.59;5050017;28;20033;-66
2022/02/02 16:04:23;;;;;;;12.43;2.72;;;;;;;8.95;95.65;102126.06;5053841;28;20523;-68
2022/02/02 16:06:50;;;;;;;13.75;2.55;;;;;;;8.96;95.49;102119.00;5052897;28;20055;-67
2022/02/02 16:09:28;;;;;;;10.07;2.13;;;;;;;8.97;95.66;102118.13;5054232;28;20025;-68
2022/02/02 16:12:18;;;;;;;11.93;2.35;;;;;;;8.95;96.21;102126.06;5054544;28;20032;-66
2022/02/02 16:14:46;;;;;;;26.92;5.53;;;;;;;8.96;95.76;102117.22;5043753;28;20040;-67
2022/02/02 16:31:32;;;;;;;11.68;3.10;;;;;;;8.89;96.55;102123.53;4992822;28;20038;-68
2022/02/02 16:36:30;;;;;;;12.73;3.35;;;;;;;8.85;97.55;102119.22;4988178;28;20038;-69
2022/02/02 16:44:17;;;;;;;17.52;5.00;;;;;;;8.83;98.53;102131.56;4992391;28;20085;-67
2022/02/02 16:46:42;;;;;;;14.95;4.05;;;;;;;8.83;98.63;102132.41;4992152;28;20038;-66
2022/02/02 16:49:09;;;;;;;15.77;3.88;;;;;;;8.81;98.90;102126.31;4992336;28;20100;-70
2022/02/02 16:51:35;;;;;;;13.02;4.47;;;;;;;8.81;99.90;102134.22;4991963;28;20065;-68
2022/02/02 16:54:02;;;;;;;15.13;3.80;;;;;;;8.80;99.68;102131.63;4991655;28;20030;-69
2022/02/02 17:37:32;;;;;;;14.18;6.70;;;;;;;8.43;100.00;102119.84;5039306;28;20059;-68
2022/02/02 17:40:06;;;;;;;12.32;5.55;;;;;;;8.36;100.00;102126.97;5056620;28;20087;-66
2022/02/02 17:45:31;;;;;;;8.82;4.72;;;;;;;8.25;100.00;102130.66;5071739;28;20392;-68
2022/02/02 18:02:34;;;;;;;17.30;7.43;;;;;;;8.26;100.00;102135.03;5053049;28;20397;-66
2022/02/02 18:16:14;;;;;;;17.38;8.50;;;;;;;8.28;100.00;102143.81;5071896;28;20115;-66
2022/02/02 18:20:50;;;;;;;17.35;9.48;;;;;;;8.26;100.00;102120.09;5072113;28;20037;-68
2022/02/02 18:26:15;;;;;;;21.15;9.18;;;;;;;8.28;100.00;102112.16;5072808;28;20035;-68
2022/02/02 18:31:21;;;;;;;19.25;9.38;;;;;;;8.31;100.00;102120.91;5071970;28;20123;-68
2022/02/02 18:50:03;;;;;;;20.65;10.68;;;;;;;8.36;100.00;102134.00;5007597;28;20037;-69
2022/02/02 19:05:32;;;;;;;21.42;11.10;;;;;;;8.29;100.00;102111.25;4978169;28;20041;-67
2022/02/02 19:38:20;;;;;;;33.20;13.50;;;;;;;8.27;100.00;102108.63;5065823;28;20049;-68
2022/02/02 19:56:56;;;;;;;49.83;18.60;;;;;;;8.23;100.00;102085.81;5074841;28;20043;-68
2022/02/02 20:07:25;;;;;;;38.10;14.43;;;;;;;8.20;100.00;102091.16;5063176;28;20025;-65
2022/02/02 20:12:36;;;;;;;63.17;20.08;;;;;;;8.18;100.00;102092.94;5071447;28;20476;-65
2022/02/02 20:15:03;;;;;;;23.63;11.15;;;;;;;8.18;100.00;102098.22;5074417;28;20032;-66
2022/02/02 20:17:29;;;;;;;25.33;11.05;;;;;;;8.18;100.00;102092.94;5074648;28;20074;-70
2022/02/02 20:20:01;;;;;;;24.90;10.75;;;;;;;8.20;100.00;102092.00;5074076;28;20060;-69
2022/02/02 20:22:30;;;;;;;19.27;9.25;;;;;;;8.19;100.00;102078.84;5074128;28;20040;-70
2022/02/02 20:25:04;;;;;;;22.15;9.75;;;;;;;8.19;100.00;102079.72;5073772;28;20028;-66
2022/02/02 20:27:32;;;;;;;21.20;10.18;;;;;;;8.19;100.00;102084.97;5074403;28;20100;-70
2022/02/02 20:29:58;;;;;;;32.60;11.15;;;;;;;8.24;100.00;102084.94;5073745;28;20491;-70
2022/02/02 20:32:24;;;;;;;21.60;8.88;;;;;;;8.22;100.00;102081.44;5062451;28;20028;-69
2022/02/02 20:34:50;;;;;;;32.92;11.68;;;;;;;8.22;100.00;102083.22;5070454;28;20384;-73
2022/02/02 20:37:18;;;;;;;16.30;7.93;;;;;;;8.22;100.00;102088.50;5074005;28;20112;-68
2022/02/02 20:42:17;;;;;;;30.35;9.20;;;;;;;8.28;100.00;102088.41;5074377;28;20139;-70
2022/02/02 21:03:42;;;;;;;14.75;5.93;;;;;;;8.34;100.00;102086.53;5071869;28;20032;-65
2022/02/02 21:14:08;;;;;;;16.58;5.90;;;;;;;8.33;100.00;102089.19;5069491;28;20075;-70
2022/02/02 21:16:37;;;;;;;11.93;5.25;;;;;;;8.35;100.00;102087.38;5067082;28;20025;-67
2022/02/02 21:19:07;;;;;;;9.48;5.35;;;;;;;8.34;100.00;102083.88;5071719;28;20020;-72
2022/02/02 21:21:39;;;;;;;15.80;6.10;;;;;;;8.34;100.00;102088.31;5073514;28;20028;-68
2022/02/02 21:24:34;;;;;;;12.05;5.30;;;;;;;8.35;100.00;102085.63;5073005;28;20127;-69
2022/02/02 21:27:19;;;;;;;17.75;6.20;;;;;;;8.36;100.00;102079.47;5073602;28;20060;-70
2022/02/02 21:29:44;;;;;;;14.85;5.80;;;;;;;8.34;100.00;102081.25;5071970;28;20472;-67
2022/02/02 21:32:10;;;;;;;12.43;6.32;;;;;;;8.34;100.00;102075.97;5073398;28;20070;-71
2022/02/02 21:34:36;;;;;;;17.35;6.13;;;;;;;8.33;100.00;102084.78;5070467;28;20032;-72
2022/02/02 21:37:05;;;;;;;11.55;5.07;;;;;;;8.36;100.00;102092.66;5072785;28;20078;-66
2022/02/02 21:39:32;;;;;;;15.40;5.32;;;;;;;8.35;100.00;102087.38;5073128;28;20115;-65
2022/02/02 21:41:58;;;;;;;13.98;6.00;;;;;;;8.36;100.00;102090.03;5073112;28;20051;-65
2022/02/02 21:44:24;;;;;;;10.70;5.22;;;;;;;8.36;100.00;102086.50;5072389;28;20099;-66
2022/02/02 21:46:50;;;;;;;10.45;5.20;;;;;;;8.42;100.00;102088.19;5073184;28;20422;-64
2022/02/02 21:49:19;;;;;;;11.18;5.65;;;;;;;8.41;100.00;102097.00;5072769;28;20464;-67
2022/02/02 21:52:02;;;;;;;10.25;5.15;;;;;;;8.40;100.00;102090.88;5072909;28;20038;-66
2022/02/02 21:54:28;;;;;;;12.75;5.55;;;;;;;8.37;100.00;102085.59;5072380;28;20056;-66
2022/02/02 21:56:53;;;;;;;12.15;5.30;;;;;;;8.37;100.00;102081.19;5073170;28;20028;-67
2022/02/02 21:59:19;;;;;;;13.07;6.78;;;;;;;8.38;100.00;102076.81;5072487;28;20028;-65
2022/02/02 22:01:44;;;;;;;12.27;5.22;;;;;;;8.39;100.00;102073.28;5072727;28;20032;-68
2022/02/02 22:04:09;;;;;;;11.88;4.90;;;;;;;8.41;100.00;102071.47;5073146;28;20360;-67
2022/02/02 22:06:35;;;;;;;11.70;5.20;;;;;;;8.42;100.00;102062.66;5056950;28;20032;-67
2022/02/02 22:09:02;;;;;;;9.95;5.25;;;;;;;8.39;100.00;102073.28;5052456;28;20059;-66
2022/02/02 22:11:27;;;;;;;13.57;5.40;;;;;;;8.41;100.00;102078.53;5061826;28;20033;-68
2022/02/02 22:14:00;;;;;;;15.57;5.72;;;;;;;8.39;100.00;102061.81;5052203;28;20024;-68
2022/02/02 22:16:25;;;;;;;11.02;5.40;;;;;;;8.40;100.00;102074.13;5062425;28;20112;-66
2022/02/02 22:18:52;;;;;;;11.73;5.30;;;;;;;8.41;100.00;102076.75;5054283;28;20123;-66
2022/02/02 22:21:18;;;;;;;15.45;5.63;;;;;;;8.42;100.00;102075.84;5071950;28;20456;-66